Time;durP1;ratioP1;P1;durP2;ratioP2;P2;SDS_P1;SDS_P2;PMS_P1;PMS_P2;Temp;Humidity;BMP_temperature;BMP_pressure;BME280_temperature;BME280_humidity;BME280_pressure;Samples;Min_cycle;Max_cycle;Signal;HPM_P1;HPM_P2
2023/12/03 00:01:38;;;;;;;45.73;16.73;;;0.30;99.90;;;;;;4955682;28;20055;-88
2023/12/03 00:04:10;;;;;;;54.07;21.30;;;-0.30;99.90;;;;;;4956675;28;20237;-87
2023/12/03 00:06:35;;;;;;;61.10;21.90;;;0.60;99.90;;;;;;5193913;23;20058;-88
2023/12/03 00:09:17;;;;;;;49.90;17.47;;;1.00;99.90;;;;;;4955529;28;20054;-88
2023/12/03 00:12:01;;;;;;;43.63;16.27;;;-0.30;99.90;;;;;;4956576;28;20102;-88
2023/12/03 00:14:47;;;;;;;84.57;32.33;;;0.10;99.90;;;;;;4956666;28;20050;-88
2023/12/03 00:17:12;;;;;;;34.77;12.27;;;0.90;99.90;;;;;;4955493;28;20113;-88
2023/12/03 00:19:46;;;;;;;40.33;14.67;;;1.20;99.90;;;;;;4956661;28;20050;-88
2023/12/03 00:22:15;;;;;;;48.07;19.13;;;0.40;99.90;;;;;;4955126;28;20055;-88
2023/12/03 00:24:40;;;;;;;37.40;13.37;;;1.40;99.90;;;;;;4956771;28;20115;-88
2023/12/03 00:27:06;;;;;;;39.63;14.50;;;-0.30;99.90;;;;;;4956363;28;20543;-88
2023/12/03 00:29:34;;;;;;;34.07;14.70;;;-0.10;99.90;;;;;;4955630;28;20546;-88
2023/12/03 00:32:09;;;;;;;38.60;15.77;;;0.60;99.90;;;;;;4956463;28;20090;-88
2023/12/03 00:34:34;;;;;;;61.37;23.60;;;1.30;99.90;;;;;;5007666;23;20055;-88
2023/12/03 00:37:44;;;;;;;36.97;14.57;;;0.30;99.90;;;;;;4951305;29;20043;-88
2023/12/03 00:40:13;;;;;;;34.50;13.43;;;1.40;99.90;;;;;;4955336;28;20137;-88
2023/12/03 00:42:39;;;;;;;41.80;17.07;;;0.10;99.90;;;;;;4956132;28;20479;-88
2023/12/03 00:45:07;;;;;;;45.33;16.60;;;0.80;99.90;;;;;;4954834;28;20043;-88
2023/12/03 00:47:33;;;;;;;47.30;19.10;;;-0.60;99.90;;;;;;4956438;28;20043;-88
2023/12/03 00:50:11;;;;;;;57.93;23.13;;;1.70;99.90;;;;;;4955656;28;20181;-88
2023/12/03 00:52:40;;;;;;;57.67;21.97;;;0.10;99.90;;;;;;4974959;28;20047;-88
2023/12/03 00:55:06;;;;;;;53.10;22.10;;;0.60;99.90;;;;;;4957341;28;20057;-88
2023/12/03 00:57:32;;;;;;;36.83;14.87;;;0.10;99.90;;;;;;4959117;28;20073;-88
2023/12/03 01:00:07;;;;;;;43.07;17.07;;;-0.10;99.90;;;;;;4959645;28;20096;-88
2023/12/03 01:02:34;;;;;;;52.60;20.17;;;0.10;99.90;;;;;;4959846;28;20451;-88
2023/12/03 01:05:12;;;;;;;37.47;14.87;;;0.30;99.90;;;;;;4958676;28;20054;-88
2023/12/03 01:07:37;;;;;;;32.70;13.07;;;1.30;99.90;;;;;;4976771;28;20134;-88
2023/12/03 01:10:04;;;;;;;41.03;16.93;;;0.80;99.90;;;;;;4958421;28;20194;-87
2023/12/03 01:12:29;;;;;;;35.07;15.73;;;0.10;99.90;;;;;;4958693;28;20057;-88
2023/12/03 01:15:16;;;;;;;30.43;13.33;;;0.40;99.90;;;;;;4959406;28;20047;-88
2023/12/03 01:17:45;;;;;;;34.07;14.87;;;0.80;99.90;;;;;;4960409;28;20059;-88
2023/12/03 01:20:11;;;;;;;33.27;14.17;;;0.90;99.90;;;;;;4958853;28;20479;-89
2023/12/03 01:22:37;;;;;;;32.67;13.20;;;;;;;;;;4958912;28;20070;-88
2023/12/03 01:25:08;;;;;;;31.60;12.23;;;0.10;99.90;;;;;;4959147;28;20050;-88
2023/12/03 01:27:34;;;;;;;33.23;13.50;;;0.20;99.90;;;;;;4958787;28;20054;-88
2023/12/03 01:30:02;;;;;;;34.00;12.93;;;0.60;99.90;;;;;;4959345;28;20042;-88
2023/12/03 01:32:28;;;;;;;33.13;12.40;;;0.20;99.90;;;;;;4959218;28;20391;-88
2023/12/03 01:34:53;;;;;;;33.40;13.40;;;0.10;99.90;;;;;;4972846;28;20073;-88
2023/12/03 01:37:19;;;;;;;34.20;12.97;;;-0.10;99.90;;;;;;4995334;28;20082;-88
2023/12/03 01:39:45;;;;;;;31.67;13.73;;;-0.20;99.90;;;;;;4977625;28;20078;-88
2023/12/03 01:42:11;;;;;;;33.63;13.43;;;0.60;99.90;;;;;;4979262;28;20064;-89
2023/12/03 01:44:40;;;;;;;36.40;13.87;;;1.00;99.90;;;;;;4978488;28;20046;-88
2023/12/03 01:47:06;;;;;;;31.53;13.70;;;0.90;99.90;;;;;;4977534;28;20109;-88
2023/12/03 01:49:52;;;;;;;33.63;11.93;;;0.10;99.90;;;;;;4978327;28;20050;-87
2023/12/03 01:52:22;;;;;;;35.40;12.47;;;0.90;99.90;;;;;;4977975;28;20058;-87
2023/12/03 01:54:49;;;;;;;34.63;12.70;;;-0.80;99.90;;;;;;4977156;28;20050;-88
2023/12/03 01:57:24;;;;;;;30.13;12.80;;;0.00;99.90;;;;;;5061194;23;20050;-88
2023/12/03 01:59:50;;;;;;;34.10;13.50;;;0.20;99.90;;;;;;4978124;28;20089;-88
2023/12/03 02:02:36;;;;;;;36.07;13.53;;;0.10;99.90;;;;;;4976727;28;20051;-88
2023/12/03 02:05:08;;;;;;;36.07;13.30;;;0.30;99.90;;;;;;4977683;28;20050;-88
2023/12/03 02:07:34;;;;;;;33.63;12.50;;;0.50;99.90;;;;;;4976830;28;20043;-88
2023/12/03 02:10:06;;;;;;;36.80;14.77;;;0.90;99.90;;;;;;4977684;28;20132;-88
2023/12/03 02:12:34;;;;;;;32.67;12.03;;;0.20;99.90;;;;;;4977203;28;20050;-88
2023/12/03 02:15:12;;;;;;;38.10;12.27;;;0.10;99.90;;;;;;4976541;28;20098;-88
2023/12/03 02:17:38;;;;;;;34.83;13.23;;;-1.10;99.90;;;;;;4977375;28;20046;-88
2023/12/03 02:20:10;;;;;;;42.30;11.60;;;0.70;99.90;;;;;;4977602;28;20387;-88
2023/12/03 02:22:40;;;;;;;35.17;12.30;;;0.30;99.90;;;;;;4992175;28;20078;-88
2023/12/03 02:25:07;;;;;;;37.43;12.07;;;0.20;99.90;;;;;;4977550;28;20557;-88
2023/12/03 02:27:32;;;;;;;43.03;12.90;;;0.20;99.90;;;;;;4977794;28;20050;-87
2023/12/03 02:30:10;;;;;;;41.87;12.43;;;0.70;99.90;;;;;;4992728;28;20049;-88
2023/12/03 02:32:36;;;;;;;36.03;13.67;;;0.20;99.90;;;;;;4994551;28;20045;-87
2023/12/03 02:35:01;;;;;;;50.17;12.37;;;0.40;99.90;;;;;;4977437;28;20395;-87
2023/12/03 02:37:43;;;;;;;36.87;13.37;;;0.20;99.90;;;;;;4975893;28;20526;-88
2023/12/03 02:40:09;;;;;;;28.93;11.63;;;-0.10;99.90;;;;;;4976254;28;20141;-87
2023/12/03 02:42:35;;;;;;;32.63;12.63;;;0.20;99.90;;;;;;4976319;28;20137;-88
2023/12/03 02:45:08;;;;;;;44.13;14.07;;;0.00;99.90;;;;;;4975738;28;20133;-88
2023/12/03 02:47:34;;;;;;;45.05;13.98;;;0.30;99.90;;;;;;4977203;28;20053;-88
2023/12/03 02:50:03;;;;;;;59.03;13.30;;;0.30;99.90;;;;;;4975985;28;20038;-88
2023/12/03 02:52:29;;;;;;;40.67;13.17;;;0.30;99.90;;;;;;4976781;28;20479;-89
2023/12/03 02:55:13;;;;;;;58.83;14.30;;;-0.10;99.90;;;;;;4976713;28;20058;-88
2023/12/03 02:57:38;;;;;;;41.35;12.63;;;-0.70;99.90;;;;;;4972036;28;20050;-87
2023/12/03 03:00:11;;;;;;;59.40;13.90;;;-0.10;99.90;;;;;;4971568;28;20415;-88
2023/12/03 03:02:37;;;;;;;39.93;12.53;;;0.10;99.90;;;;;;4989728;28;20046;-87
2023/12/03 03:05:04;;;;;;;46.00;13.80;;;-0.20;99.90;;;;;;4978252;28;20097;-88
2023/12/03 03:07:41;;;;;;;46.70;13.20;;;0.10;99.90;;;;;;4971688;28;20047;-88
2023/12/03 03:10:13;;;;;;;49.13;13.53;;;0.50;99.90;;;;;;4973238;28;20104;-88
2023/12/03 03:12:39;;;;;;;45.30;12.13;;;1.40;99.90;;;;;;4972660;28;20046;-88
2023/12/03 03:15:24;;;;;;;41.13;12.83;;;0.60;99.90;;;;;;4973670;28;20206;-88
2023/12/03 03:18:07;;;;;;;39.07;12.23;;;0.50;99.90;;;;;;4972021;28;20054;-88
2023/12/03 03:20:34;;;;;;;40.28;12.50;;;-0.10;99.90;;;;;;4973086;28;20139;-88
2023/12/03 03:23:09;;;;;;;51.47;13.27;;;0.40;99.90;;;;;;4972635;28;20050;-88
2023/12/03 03:25:52;;;;;;;49.43;12.43;;;0.00;99.90;;;;;;4973887;28;20054;-88
2023/12/03 03:28:18;;;;;;;64.60;13.33;;;-0.10;99.90;;;;;;4973332;28;20046;-87
2023/12/03 03:30:43;;;;;;;87.63;14.30;;;-0.10;99.90;;;;;;4973558;28;20286;-88
2023/12/03 03:33:09;;;;;;;62.13;13.17;;;0.70;99.90;;;;;;4972892;28;20131;-88
2023/12/03 03:35:35;;;;;;;37.90;11.57;;;0.00;99.90;;;;;;4973961;28;20050;-87
2023/12/03 03:38:01;;;;;;;39.10;11.20;;;-0.10;99.90;;;;;;4974349;28;20093;-87
2023/12/03 03:40:26;;;;;;;42.30;12.33;;;0.00;99.90;;;;;;4972332;28;20051;-87
2023/12/03 03:42:52;;;;;;;48.47;11.63;;;0.30;99.90;;;;;;4972218;28;20050;-88
2023/12/03 03:45:18;;;;;;;37.43;11.10;;;0.90;99.90;;;;;;4972773;28;20054;-88
2023/12/03 03:47:43;;;;;;;37.97;11.40;;;0.60;99.90;;;;;;4972596;28;20076;-88
2023/12/03 03:50:09;;;;;;;51.60;12.70;;;0.90;99.90;;;;;;4972642;28;20410;-87
2023/12/03 03:52:35;;;;;;;38.20;11.53;;;0.30;99.90;;;;;;4972395;28;20475;-88
2023/12/03 03:55:03;;;;;;;45.30;13.37;;;0.30;99.90;;;;;;4973068;28;20070;-88
2023/12/03 03:57:30;;;;;;;31.93;11.93;;;0.50;99.90;;;;;;4975001;28;20048;-88
2023/12/03 03:59:56;;;;;;;58.23;11.93;;;1.10;99.90;;;;;;4975402;28;20050;-88
2023/12/03 04:02:22;;;;;;;57.50;12.77;;;1.70;99.90;;;;;;4975936;28;20406;-88
2023/12/03 04:04:47;;;;;;;33.00;11.57;;;0.00;99.90;;;;;;4976401;28;20050;-88
2023/12/03 04:07:13;;;;;;;50.23;12.83;;;1.00;99.90;;;;;;4974739;28;20042;-88
2023/12/03 04:09:54;;;;;;;37.97;12.00;;;0.60;99.90;;;;;;4975133;28;20050;-88
2023/12/03 04:12:41;;;;;;;46.07;13.37;;;-0.10;99.90;;;;;;4975803;28;20104;-88
2023/12/03 04:15:07;;;;;;;40.23;11.77;;;0.00;99.90;;;;;;4975416;28;20394;-88
2023/12/03 04:20:08;;;;;;;40.13;11.97;;;0.30;99.90;;;;;;4952808;29;20047;-89
2023/12/03 04:22:49;;;;;;;40.00;11.60;;;0.40;99.90;;;;;;4951310;29;20415;-88
2023/12/03 04:25:15;;;;;;;39.03;12.07;;;1.70;99.90;;;;;;4953068;29;20381;-88
2023/12/03 04:27:41;;;;;;;38.50;12.20;;;1.30;99.90;;;;;;4953219;29;20045;-88
2023/12/03 04:30:16;;;;;;;38.77;12.10;;;0.60;99.90;;;;;;4953928;28;20129;-89
2023/12/03 04:37:03;;;;;;;36.50;13.20;;;1.50;99.90;;;;;;4957119;29;20042;-87
2023/12/03 04:39:35;;;;;;;35.93;12.23;;;-0.20;99.90;;;;;;4957011;29;20051;-88
2023/12/03 04:42:09;;;;;;;37.27;12.03;;;0.30;99.90;;;;;;4956509;29;20126;-88
2023/12/03 04:45:03;;;;;;;40.27;11.60;;;2.10;99.90;;;;;;4956785;29;20047;-88
2023/12/03 04:47:29;;;;;;;40.15;13.13;;;-0.50;99.90;;;;;;4956554;29;20106;-88
2023/12/03 04:49:55;;;;;;;37.20;12.87;;;1.00;99.90;;;;;;4962898;23;20447;-88
2023/12/03 04:52:20;;;;;;;37.73;12.10;;;1.30;99.90;;;;;;4956234;29;20138;-88
2023/12/03 04:54:55;;;;;;;43.53;13.67;;;0.50;99.90;;;;;;4956947;29;20167;-88
2023/12/03 04:57:38;;;;;;;43.80;12.53;;;2.30;99.90;;;;;;4956093;29;20043;-88
2023/12/03 05:00:32;;;;;;;44.87;13.10;;;1.10;99.90;;;;;;4956152;29;20051;-88
2023/12/03 05:10:33;;;;;;;37.53;11.80;;;1.10;99.90;;;;;;4978857;28;20409;-88
2023/12/03 05:13:46;;;;;;;37.97;11.60;;;0.20;99.90;;;;;;4979012;28;20553;-88
2023/12/03 05:16:58;;;;;;;38.30;11.67;;;1.00;99.90;;;;;;4978550;28;20094;-88
2023/12/03 05:19:33;;;;;;;33.97;11.00;;;0.00;99.90;;;;;;4979229;28;20047;-88
2023/12/03 05:22:08;;;;;;;34.43;11.23;;;0.00;99.90;;;;;;4977909;28;20045;-88
2023/12/03 05:24:43;;;;;;;29.97;10.20;;;0.10;99.90;;;;;;4977916;28;20048;-88
2023/12/03 05:27:08;;;;;;;36.17;11.00;;;1.50;99.90;;;;;;4978409;28;20125;-88
2023/12/03 05:29:41;;;;;;;34.60;10.90;;;0.00;99.90;;;;;;4979118;28;20129;-88
2023/12/03 05:32:06;;;;;;;30.63;11.03;;;0.50;99.90;;;;;;4995280;28;20038;-88
2023/12/03 05:34:57;;;;;;;27.53;10.33;;;1.40;99.90;;;;;;4978614;28;20050;-88
2023/12/03 05:37:26;;;;;;;35.17;10.97;;;0.40;99.90;;;;;;4978260;28;20088;-88
2023/12/03 05:39:52;;;;;;;32.10;11.60;;;0.30;99.90;;;;;;4977052;28;20490;-88
2023/12/03 05:42:18;;;;;;;31.30;11.07;;;0.40;99.90;;;;;;4977794;28;20038;-88
2023/12/03 05:44:43;;;;;;;35.40;10.43;;;0.20;99.90;;;;;;4978421;28;20054;-88
2023/12/03 05:47:12;;;;;;;28.07;10.07;;;1.20;99.90;;;;;;4994842;28;20068;-88
2023/12/03 05:49:40;;;;;;;30.43;9.03;;;1.60;99.90;;;;;;4978221;28;20073;-89
2023/12/03 05:52:07;;;;;;;26.17;9.17;;;0.50;99.90;;;;;;4993247;28;20101;-88
2023/12/03 05:54:42;;;;;;;31.97;9.57;;;0.60;99.90;;;;;;4993570;28;20089;-88
2023/12/03 05:57:11;;;;;;;31.00;11.20;;;-0.10;99.90;;;;;;4994171;28;20502;-88
2023/12/03 05:59:52;;;;;;;34.13;10.43;;;1.70;99.90;;;;;;4993762;28;20118;-88
2023/12/03 06:02:18;;;;;;;32.20;9.33;;;1.00;99.90;;;;;;4994605;28;20045;-88
2023/12/03 06:04:44;;;;;;;31.67;10.40;;;0.30;99.90;;;;;;4995586;28;20046;-88
2023/12/03 06:07:09;;;;;;;29.50;10.07;;;1.00;99.90;;;;;;4994033;28;20120;-88
2023/12/03 06:09:39;;;;;;;33.97;10.07;;;0.90;99.90;;;;;;4994645;28;20101;-88
2023/12/03 06:12:05;;;;;;;36.37;9.70;;;0.50;99.90;;;;;;4994593;28;20122;-88
2023/12/03 06:14:39;;;;;;;36.07;10.60;;;0.50;99.90;;;;;;4993270;28;20050;-88
2023/12/03 06:17:05;;;;;;;30.10;11.17;;;1.80;99.90;;;;;;4994775;28;20050;-88
2023/12/03 06:19:31;;;;;;;30.93;10.37;;;1.90;99.90;;;;;;4994258;28;20049;-88
2023/12/03 06:21:59;;;;;;;34.47;10.40;;;2.00;99.90;;;;;;4992696;28;20502;-88
2023/12/03 06:24:26;;;;;;;33.73;10.30;;;0.50;99.90;;;;;;4993787;28;20137;-88
2023/12/03 06:27:08;;;;;;;35.37;10.73;;;0.30;99.90;;;;;;4993884;28;20050;-88
2023/12/03 06:29:45;;;;;;;30.13;10.30;;;1.60;99.90;;;;;;4992856;28;20050;-88
2023/12/03 06:32:11;;;;;;;31.63;10.47;;;0.80;99.90;;;;;;4993316;28;20057;-88
2023/12/03 06:34:37;;;;;;;34.27;10.57;;;1.20;99.90;;;;;;4993781;28;20565;-89
2023/12/03 06:37:55;;;;;;;28.50;10.53;;;0.40;99.90;;;;;;4992955;28;20046;-88
2023/12/03 06:40:21;;;;;;;38.63;12.07;;;1.60;99.90;;;;;;4993470;28;20117;-88
2023/12/03 06:42:47;;;;;;;30.60;10.90;;;2.00;99.90;;;;;;4992952;28;20058;-88
2023/12/03 06:45:28;;;;;;;35.40;9.87;;;0.70;99.90;;;;;;4993648;28;20466;-88
2023/12/03 06:47:53;;;;;;;33.93;10.30;;;1.40;99.90;;;;;;4993183;28;20592;-88
2023/12/03 06:50:19;;;;;;;37.80;11.40;;;0.50;99.90;;;;;;4991213;28;20886;-88
2023/12/03 06:52:45;;;;;;;38.53;11.73;;;0.40;99.90;;;;;;4992075;28;20046;-88
2023/12/03 06:55:12;;;;;;;37.50;10.27;;;1.60;99.90;;;;;;4994360;28;20433;-88
2023/12/03 06:57:56;;;;;;;45.10;12.90;;;0.70;99.90;;;;;;4992139;28;20579;-88
2023/12/03 07:00:23;;;;;;;;;;;1.10;99.90;;;;;;4993195;28;20055;-88
2023/12/03 07:02:52;;;;;;;35.13;12.07;;;0.70;99.90;;;;;;4993423;28;19968;-86
2023/12/03 07:05:17;;;;;;;35.03;11.63;;;0.90;99.90;;;;;;4993004;28;20486;-83
2023/12/03 07:07:48;;;;;;;34.50;11.17;;;2.00;99.90;;;;;;4993089;28;20044;-85
2023/12/03 07:10:15;;;;;;;44.40;11.03;;;1.30;99.90;;;;;;4992078;28;20042;-86
2023/12/03 07:12:40;;;;;;;38.73;13.03;;;0.70;99.90;;;;;;4992937;28;20061;-86
2023/12/03 07:15:06;;;;;;;30.33;11.17;;;0.60;99.90;;;;;;4992602;28;20046;-85
2023/12/03 07:17:32;;;;;;;46.53;12.90;;;0.80;99.90;;;;;;4992389;28;20092;-85
2023/12/03 07:20:00;;;;;;;48.30;15.77;;;0.70;99.90;;;;;;4992767;28;20121;-85
2023/12/03 07:22:26;;;;;;;56.57;16.17;;;0.90;99.90;;;;;;4992203;28;20046;-86
2023/12/03 07:24:53;;;;;;;52.00;15.33;;;0.60;99.90;;;;;;4991215;28;20057;-83
2023/12/03 07:27:19;;;;;;;51.87;16.00;;;0.70;99.90;;;;;;4992951;28;20042;-83
2023/12/03 07:29:45;;;;;;;53.63;15.17;;;0.70;99.90;;;;;;4992727;28;20050;-83
2023/12/03 07:32:11;;;;;;;54.03;15.30;;;0.70;99.90;;;;;;4991376;28;20050;-83
2023/12/03 07:34:45;;;;;;;53.07;14.90;;;0.80;99.90;;;;;;4973473;28;20394;-83
2023/12/03 07:37:12;;;;;;;53.70;16.07;;;1.00;99.90;;;;;;4975336;28;20554;-83
2023/12/03 07:39:39;;;;;;;50.47;15.80;;;0.70;99.90;;;;;;4971977;28;20070;-84
2023/12/03 07:42:05;;;;;;;51.47;16.00;;;0.70;99.90;;;;;;4975801;28;20499;-84
2023/12/03 07:44:30;;;;;;;50.43;13.93;;;0.80;99.90;;;;;;4975157;28;20106;-83
2023/12/03 07:47:08;;;;;;;57.33;17.53;;;0.80;99.90;;;;;;4974679;28;20051;-84
2023/12/03 07:49:34;;;;;;;51.60;16.17;;;0.70;99.90;;;;;;4975976;28;20101;-84
2023/12/03 07:52:01;;;;;;;53.53;16.53;;;0.60;99.90;;;;;;4974690;28;20046;-84
2023/12/03 07:54:42;;;;;;;63.57;17.97;;;0.80;99.90;;;;;;4974330;28;20541;-84
2023/12/03 07:57:07;;;;;;;66.63;18.27;;;0.50;99.90;;;;;;4975687;28;20048;-84
2023/12/03 07:59:33;;;;;;;66.70;19.13;;;0.80;99.90;;;;;;4974979;28;20046;-83
2023/12/03 08:01:59;;;;;;;70.53;21.37;;;0.80;99.90;;;;;;4975536;28;20048;-84
2023/12/03 08:04:24;;;;;;;75.70;19.17;;;0.90;99.90;;;;;;4975405;28;20078;-84
2023/12/03 08:06:50;;;;;;;76.00;18.97;;;0.90;99.90;;;;;;4974407;28;20050;-84
2023/12/03 08:09:16;;;;;;;61.97;18.17;;;0.80;99.90;;;;;;4975298;28;20082;-84
2023/12/03 08:11:41;;;;;;;64.20;16.93;;;0.90;99.90;;;;;;4976187;28;20049;-84
2023/12/03 08:14:07;;;;;;;70.70;18.77;;;0.90;99.90;;;;;;4974905;28;20547;-84
2023/12/03 08:16:32;;;;;;;58.30;17.13;;;0.90;99.90;;;;;;4975319;28;20069;-84
2023/12/03 08:19:04;;;;;;;62.73;17.73;;;0.80;99.90;;;;;;4974805;28;20367;-84
2023/12/03 08:21:32;;;;;;;65.63;17.63;;;0.90;99.90;;;;;;4974644;28;20471;-85
2023/12/03 08:23:58;;;;;;;60.80;21.43;;;1.40;99.90;;;;;;4975230;28;20038;-84
2023/12/03 08:26:24;;;;;;;66.03;18.27;;;1.00;99.90;;;;;;4974576;28;20137;-84
2023/12/03 08:28:56;;;;;;;65.50;18.57;;;0.90;99.90;;;;;;4975160;28;20046;-84
2023/12/03 08:31:23;;;;;;;61.57;18.10;;;1.00;99.90;;;;;;4976006;28;20045;-84
2023/12/03 08:33:49;;;;;;;60.50;18.60;;;2.30;99.90;;;;;;4975494;28;20053;-84
2023/12/03 08:36:18;;;;;;;59.07;19.13;;;0.90;99.90;;;;;;4973579;28;20050;-84
2023/12/03 08:38:45;;;;;;;53.90;17.83;;;1.00;99.90;;;;;;4974783;28;20042;-85
2023/12/03 08:41:29;;;;;;;66.57;19.77;;;1.00;99.90;;;;;;4986655;28;20055;-83
2023/12/03 08:44:38;;;;;;;62.25;18.98;;;0.90;99.90;;;;;;4973362;28;20094;-83
2023/12/03 08:47:16;;;;;;;61.40;19.97;;;2.10;99.90;;;;;;4970226;28;20051;-85
2023/12/03 08:49:41;;;;;;;61.47;18.23;;;0.90;99.90;;;;;;4970820;28;20038;-83
2023/12/03 08:52:08;;;;;;;55.93;18.10;;;1.10;99.90;;;;;;4973721;28;20081;-84
2023/12/03 08:54:34;;;;;;;64.40;19.77;;;1.20;99.90;;;;;;4973921;28;20038;-84
2023/12/03 08:57:00;;;;;;;67.97;21.17;;;1.20;99.90;;;;;;4973664;28;20427;-84
2023/12/03 08:59:25;;;;;;;70.47;19.30;;;1.20;99.90;;;;;;4974862;28;20169;-82
2023/12/03 09:01:51;;;;;;;62.17;19.73;;;1.80;99.90;;;;;;4974962;28;20150;-83
2023/12/03 09:04:19;;;;;;;64.23;19.40;;;1.40;99.90;;;;;;4974096;28;20458;-82
2023/12/03 09:06:46;;;;;;;67.53;20.90;;;2.80;99.90;;;;;;4974699;28;20041;-84
2023/12/03 09:09:14;;;;;;;64.73;20.40;;;1.20;99.90;;;;;;4972020;28;20873;-83
2023/12/03 09:11:43;;;;;;;64.67;20.43;;;1.10;99.90;;;;;;4988874;28;20137;-83
2023/12/03 09:14:09;;;;;;;62.17;20.63;;;1.10;99.90;;;;;;4991928;28;20081;-84
2023/12/03 09:16:35;;;;;;;68.57;21.97;;;2.80;99.90;;;;;;4976311;28;20045;-85
2023/12/03 09:19:13;;;;;;;67.43;21.60;;;1.50;99.90;;;;;;4967385;28;20414;-85
2023/12/03 09:21:39;;;;;;;61.93;21.93;;;1.80;99.90;;;;;;4966818;28;20050;-87
2023/12/03 09:24:15;;;;;;;64.47;21.43;;;1.70;99.90;;;;;;4965544;28;20046;-86
2023/12/03 09:26:43;;;;;;;66.57;22.80;;;1.60;99.90;;;;;;4975833;28;20065;-85
2023/12/03 09:29:11;;;;;;;60.90;22.53;;;1.60;99.90;;;;;;4978152;28;20044;-86
2023/12/03 09:31:49;;;;;;;57.80;21.97;;;3.40;99.90;;;;;;4977685;28;20042;-86
2023/12/03 09:34:15;;;;;;;64.27;23.40;;;1.60;99.90;;;;;;4971163;28;20525;-86
2023/12/03 09:36:40;;;;;;;54.63;21.00;;;1.50;99.90;;;;;;4959300;28;20035;-87
2023/12/03 09:39:16;;;;;;;55.13;22.40;;;2.00;99.90;;;;;;4959316;28;20109;-85
2023/12/03 09:41:48;;;;;;;58.37;22.80;;;3.10;99.90;;;;;;4959673;28;20043;-84
2023/12/03 09:44:48;;;;;;;53.70;22.90;;;1.90;99.90;;;;;;4962252;28;20454;-85
2023/12/03 09:47:14;;;;;;;56.40;24.53;;;1.90;99.90;;;;;;4978140;28;20057;-84
2023/12/03 09:49:55;;;;;;;52.83;23.80;;;2.30;99.90;;;;;;4978390;28;20086;-84
2023/12/03 09:52:35;;;;;;;52.53;23.53;;;1.40;99.90;;;;;;4974331;28;20055;-84
2023/12/03 09:55:19;;;;;;;52.73;24.33;;;1.40;99.90;;;;;;4967557;28;20043;-84
2023/12/03 09:58:03;;;;;;;55.25;23.73;;;0.80;99.90;;;;;;4973023;28;20043;-87
2023/12/03 10:03:52;;;;;;;50.10;22.23;;;2.60;99.90;;;;;;4881671;29;20063;-85
2023/12/03 10:06:34;;;;;;;52.77;23.30;;;3.30;99.90;;;;;;4882121;29;20072;-85
2023/12/03 10:09:02;;;;;;;51.67;23.13;;;1.90;99.90;;;;;;4882508;29;20048;-85
2023/12/03 10:11:39;;;;;;;44.80;22.30;;;2.10;99.90;;;;;;4892401;28;20087;-85
2023/12/03 10:14:20;;;;;;;47.33;22.10;;;1.80;99.90;;;;;;4975569;28;20038;-85
2023/12/03 10:17:01;;;;;;;46.33;22.23;;;1.40;99.90;;;;;;4975170;28;20078;-85
2023/12/03 10:20:21;;;;;;;45.47;22.67;;;2.20;99.90;;;;;;4975421;28;20058;-85
2023/12/03 10:23:15;;;;;;;41.87;22.33;;;1.60;99.90;;;;;;4881634;29;20111;-85
2023/12/03 10:25:41;;;;;;;43.85;21.58;;;1.40;99.90;;;;;;4881952;29;20088;-85
2023/12/03 10:28:09;;;;;;;45.73;22.30;;;3.30;99.90;;;;;;4881422;29;20056;-84
2023/12/03 10:30:38;;;;;;;46.10;23.00;;;1.80;99.90;;;;;;4924595;28;20117;-85
2023/12/03 10:33:07;;;;;;;44.40;21.13;;;2.80;99.90;;;;;;4975700;28;20046;-84
2023/12/03 10:35:35;;;;;;;41.57;21.17;;;1.80;99.90;;;;;;4974367;28;20395;-85
2023/12/03 10:38:07;;;;;;;43.53;20.93;;;2.00;99.90;;;;;;4974050;28;20564;-85
2023/12/03 10:40:33;;;;;;;46.00;22.87;;;2.20;99.90;;;;;;4975776;28;20050;-85
2023/12/03 10:43:01;;;;;;;42.50;21.37;;;2.90;99.90;;;;;;4963329;28;20051;-85
2023/12/03 10:45:27;;;;;;;44.77;22.67;;;3.00;99.90;;;;;;4972283;28;20051;-85
2023/12/03 10:48:15;;;;;;;42.47;21.93;;;2.90;99.90;;;;;;4974194;28;20043;-84
2023/12/03 10:50:45;;;;;;;45.87;21.90;;;2.30;99.90;;;;;;4977150;28;20065;-85
2023/12/03 10:54:02;;;;;;;43.33;22.10;;;1.70;99.90;;;;;;4976883;28;20491;-85
2023/12/03 10:56:28;;;;;;;45.13;22.30;;;3.60;99.90;;;;;;4976397;28;20486;-85
2023/12/03 10:58:57;;;;;;;46.70;23.53;;;3.70;99.90;;;;;;4958182;28;20051;-85
2023/12/03 11:01:24;;;;;;;44.03;21.07;;;1.90;99.90;;;;;;4957750;28;20043;-85
2023/12/03 11:04:13;;;;;;;38.37;20.67;;;2.20;99.90;;;;;;4957013;28;20047;-85
2023/12/03 11:06:49;;;;;;;44.40;22.30;;;2.20;99.90;;;;;;4958102;28;20509;-85
2023/12/03 11:09:15;;;;;;;41.30;21.07;;;2.40;99.90;;;;;;4973815;28;20088;-85
2023/12/03 11:11:41;;;;;;;39.17;20.17;;;3.70;99.90;;;;;;4957391;28;20558;-85
2023/12/03 11:14:09;;;;;;;38.77;19.80;;;3.50;99.90;;;;;;4957512;28;20207;-85
2023/12/03 11:17:11;;;;;;;;;;;;;;;;;;;;;
2023/12/03 11:19:56;;;;;;;37.90;19.13;;;2.40;99.90;;;;;;4952425;28;20059;-85
2023/12/03 11:23:14;;;;;;;38.43;18.63;;;2.50;99.90;;;;;;4959565;28;20046;-85
2023/12/03 11:26:32;;;;;;;33.57;17.50;;;2.70;99.90;;;;;;5017457;23;20046;-85
2023/12/03 11:36:39;;;;;;;35.23;19.23;;;3.90;99.90;;;;;;4954805;29;20554;-85
2023/12/03 11:40:16;;;;;;;39.53;20.67;;;2.70;99.90;;;;;;4935634;29;20511;-85
2023/12/03 11:43:28;;;;;;;35.27;18.17;;;3.40;99.90;;;;;;4937460;29;20098;-85
2023/12/03 11:45:54;;;;;;;34.43;17.17;;;2.30;99.90;;;;;;4936403;29;20145;-85
2023/12/03 11:48:25;;;;;;;35.10;18.20;;;3.60;99.90;;;;;;4937523;29;20051;-85
2023/12/03 11:51:14;;;;;;;37.13;17.53;;;2.80;99.90;;;;;;4954988;29;20043;-85
2023/12/03 11:54:01;;;;;;;35.07;18.00;;;2.10;99.90;;;;;;4954870;29;20047;-85
2023/12/03 11:56:35;;;;;;;39.87;19.20;;;2.20;99.90;;;;;;4937687;29;20047;-85
2023/12/03 11:59:13;;;;;;;43.40;20.13;;;1.70;99.90;;;;;;4937000;29;20051;-84
2023/12/03 12:01:43;;;;;;;39.97;20.43;;;1.80;99.90;;;;;;4937967;29;20061;-85
2023/12/03 12:04:18;;;;;;;41.20;21.03;;;2.00;99.90;;;;;;4954393;29;20047;-84
2023/12/03 12:06:46;;;;;;;45.83;21.20;;;1.70;99.90;;;;;;4936887;29;20444;-85
2023/12/03 12:09:33;;;;;;;41.97;20.30;;;3.40;99.90;;;;;;4937054;29;20062;-85
2023/12/03 12:11:58;;;;;;;44.23;21.67;;;1.70;99.90;;;;;;4937954;29;20039;-85
2023/12/03 12:14:24;;;;;;;43.17;21.97;;;3.10;99.90;;;;;;4937092;29;20530;-85
2023/12/03 12:16:50;;;;;;;43.53;21.97;;;1.60;99.90;;;;;;4937923;29;20474;-85
2023/12/03 12:19:15;;;;;;;41.50;21.70;;;3.00;99.90;;;;;;4936822;29;20055;-85
2023/12/03 12:22:10;;;;;;;40.80;20.73;;;2.80;99.90;;;;;;4933339;29;20083;-85
2023/12/03 12:24:36;;;;;;;42.53;21.43;;;1.60;99.90;;;;;;4937657;29;20505;-85
2023/12/03 12:27:02;;;;;;;43.17;20.30;;;2.40;99.90;;;;;;4953602;29;20130;-85
2023/12/03 12:29:28;;;;;;;39.47;19.77;;;1.70;99.90;;;;;;4954447;29;20518;-85
2023/12/03 12:31:53;;;;;;;40.07;19.73;;;1.50;99.90;;;;;;4933328;29;20048;-85
2023/12/03 12:34:37;;;;;;;40.53;21.03;;;2.40;99.90;;;;;;4933270;29;20075;-84
2023/12/03 12:37:14;;;;;;;41.78;20.40;;;1.10;99.90;;;;;;4933714;29;20055;-84
2023/12/03 12:39:51;;;;;;;41.43;20.97;;;1.80;99.90;;;;;;4934092;29;20131;-84
2023/12/03 12:42:42;;;;;;;39.43;20.77;;;3.90;99.90;;;;;;4933098;29;20056;-84
2023/12/03 12:45:26;;;;;;;40.47;19.70;;;2.00;99.90;;;;;;4933955;29;20043;-85
2023/12/03 12:47:52;;;;;;;41.90;20.60;;;4.00;99.90;;;;;;4932877;29;20059;-85
2023/12/03 12:50:39;;;;;;;38.60;19.10;;;4.10;99.90;;;;;;4934378;29;20111;-84
2023/12/03 12:53:20;;;;;;;37.07;17.73;;;2.70;99.90;;;;;;4937517;29;20492;-84
2023/12/03 12:56:06;;;;;;;34.60;17.13;;;2.70;99.90;;;;;;4937401;29;20046;-84
2023/12/03 12:58:51;;;;;;;35.33;17.57;;;4.60;99.90;;;;;;4885323;29;20509;-85
2023/12/03 13:05:13;;;;;;;36.37;16.33;;;3.00;99.90;;;;;;4789562;29;20125;-84
2023/12/03 13:07:45;;;;;;;30.93;16.50;;;3.10;99.90;;;;;;4870751;29;20572;-86
2023/12/03 13:10:16;;;;;;;30.73;16.47;;;3.20;99.90;;;;;;4877367;29;20059;-84
2023/12/03 13:13:14;;;;;;;31.57;15.23;;;3.70;99.90;;;;;;4937359;29;20047;-85
2023/12/03 13:16:27;;;;;;;32.80;15.57;;;3.60;99.90;;;;;;4864130;29;20068;-85
2023/12/03 13:19:31;;;;;;;32.57;15.97;;;3.80;99.90;;;;;;4847452;29;20139;-86
2023/12/03 13:22:53;;;;;;;;;;;;;;;;;;;;;
2023/12/03 13:25:43;;;;;;;31.40;14.97;;;2.30;99.90;;;;;;4829814;29;20076;-85
2023/12/03 13:28:29;;;;;;;31.37;15.63;;;2.90;99.90;;;;;;4845640;29;20437;-85
2023/12/03 13:31:21;;;;;;;32.47;14.77;;;2.90;99.90;;;;;;4919619;29;20051;-85
2023/12/03 13:33:58;;;;;;;29.13;14.53;;;3.10;99.90;;;;;;4937023;29;20139;-85
2023/12/03 13:36:34;;;;;;;28.47;14.70;;;3.00;99.90;;;;;;4937496;29;20066;-85
2023/12/03 13:39:16;;;;;;;30.57;14.77;;;2.50;99.90;;;;;;4935815;29;20044;-85